Weather at Kingston Airfield [CLOSED]

Public forecast

Using degrees Celsius for public forecast. Weather courtesy of forecast.io.

Closest aviation weather report (METAR) to Kingston Airfield

Closest report is Kingston Norman Rogers Airport, 4.3 nm (8.0 km) WSW.

2024/06/24 21:00 (retrieved 1 hour ago)

CYGK 242100Z 35012G18KT 15SM FEW055 BKN240 27/11 A2980 RMK CU1CI4 SLP094 DENSITY ALT 1900FT

Closest aviation forecast (TAF) to Kingston Airfield

Closest forecast is Kingston Norman Rogers Airport, 4.3 nm (8.0 km) WSW.

2024/06/24 20:00 (retrieved 2 hours ago)

TAF CYGK 241940Z 2420/2503 33013G23KT P6SM FEW030 SCT060 BECMG 2422/2424 32008KT FEW060 RMK NXT FCST BY 251200Z